sensor_id;sensor_type;location;lat;lon;timestamp;P1;durP1;ratioP1;P2;durP2;ratioP2
32146;SDS011;32190;49.112;8.598;2022-12-18T00:00:08;9.98;;;7.32;;
32146;SDS011;32190;49.112;8.598;2022-12-18T00:05:59;10.80;;;7.60;;
32146;SDS011;32190;49.112;8.598;2022-12-18T00:11:50;11.10;;;7.78;;
32146;SDS011;32190;49.112;8.598;2022-12-18T00:17:40;12.07;;;7.78;;
32146;SDS011;32190;49.112;8.598;2022-12-18T00:23:31;10.07;;;7.68;;
32146;SDS011;32190;49.112;8.598;2022-12-18T00:29:23;11.68;;;7.75;;
32146;SDS011;32190;49.112;8.598;2022-12-18T00:35:13;11.05;;;7.93;;
32146;SDS011;32190;49.112;8.598;2022-12-18T00:41:04;11.40;;;7.13;;
32146;SDS011;32190;49.112;8.598;2022-12-18T00:46:55;10.30;;;7.85;;
32146;SDS011;32190;49.112;8.598;2022-12-18T00:52:46;10.48;;;7.45;;
32146;SDS011;32190;49.112;8.598;2022-12-18T00:58:37;9.05;;;7.35;;
32146;SDS011;32190;49.112;8.598;2022-12-18T01:04:28;12.55;;;9.43;;
32146;SDS011;32190;49.112;8.598;2022-12-18T01:10:22;12.95;;;8.65;;
32146;SDS011;32190;49.112;8.598;2022-12-18T01:16:15;12.20;;;7.55;;
32146;SDS011;32190;49.112;8.598;2022-12-18T01:22:06;11.77;;;7.65;;
32146;SDS011;32190;49.112;8.598;2022-12-18T01:27:57;9.73;;;7.90;;
32146;SDS011;32190;49.112;8.598;2022-12-18T01:33:47;11.90;;;7.47;;
32146;SDS011;32190;49.112;8.598;2022-12-18T01:39:38;9.25;;;6.88;;
32146;SDS011;32190;49.112;8.598;2022-12-18T01:45:30;14.45;;;10.27;;
32146;SDS011;32190;49.112;8.598;2022-12-18T01:51:21;10.98;;;7.53;;
32146;SDS011;32190;49.112;8.598;2022-12-18T01:57:13;11.70;;;8.32;;
32146;SDS011;32190;49.112;8.598;2022-12-18T02:03:03;12.73;;;8.57;;
32146;SDS011;32190;49.112;8.598;2022-12-18T02:09:08;10.27;;;6.95;;
32146;SDS011;32190;49.112;8.598;2022-12-18T02:15:12;12.65;;;7.82;;
32146;SDS011;32190;49.112;8.598;2022-12-18T02:27:32;11.25;;;7.78;;
32146;SDS011;32190;49.112;8.598;2022-12-18T02:33:25;12.45;;;8.02;;
32146;SDS011;32190;49.112;8.598;2022-12-18T02:39:18;12.13;;;8.45;;
32146;SDS011;32190;49.112;8.598;2022-12-18T02:45:11;12.75;;;9.07;;
32146;SDS011;32190;49.112;8.598;2022-12-18T02:51:11;14.00;;;8.77;;
32146;SDS011;32190;49.112;8.598;2022-12-18T02:57:24;13.73;;;9.05;;
32146;SDS011;32190;49.112;8.598;2022-12-18T03:09:39;10.68;;;7.50;;
32146;SDS011;32190;49.112;8.598;2022-12-18T03:15:34;12.15;;;7.85;;
32146;SDS011;32190;49.112;8.598;2022-12-18T03:21:42;11.82;;;8.05;;
32146;SDS011;32190;49.112;8.598;2022-12-18T03:27:36;16.30;;;10.65;;
32146;SDS011;32190;49.112;8.598;2022-12-18T03:33:39;14.65;;;9.38;;
32146;SDS011;32190;49.112;8.598;2022-12-18T03:39:42;12.68;;;8.20;;
32146;SDS011;32190;49.112;8.598;2022-12-18T03:45:34;15.10;;;9.48;;
32146;SDS011;32190;49.112;8.598;2022-12-18T03:57:29;11.32;;;7.65;;
32146;SDS011;32190;49.112;8.598;2022-12-18T04:03:23;11.82;;;8.18;;
32146;SDS011;32190;49.112;8.598;2022-12-18T04:09:15;11.43;;;8.45;;
32146;SDS011;32190;49.112;8.598;2022-12-18T04:15:06;11.35;;;8.05;;
32146;SDS011;32190;49.112;8.598;2022-12-18T04:20:58;12.32;;;8.18;;
32146;SDS011;32190;49.112;8.598;2022-12-18T04:26:48;10.23;;;6.78;;
32146;SDS011;32190;49.112;8.598;2022-12-18T04:32:39;8.90;;;6.60;;
32146;SDS011;32190;49.112;8.598;2022-12-18T04:38:29;10.07;;;7.05;;
32146;SDS011;32190;49.112;8.598;2022-12-18T04:44:20;9.13;;;6.90;;
32146;SDS011;32190;49.112;8.598;2022-12-18T04:50:11;9.82;;;6.75;;
32146;SDS011;32190;49.112;8.598;2022-12-18T04:56:03;10.85;;;6.93;;
32146;SDS011;32190;49.112;8.598;2022-12-18T05:01:57;14.45;;;8.50;;
32146;SDS011;32190;49.112;8.598;2022-12-18T05:07:47;11.32;;;8.20;;
32146;SDS011;32190;49.112;8.598;2022-12-18T05:13:38;10.90;;;7.47;;
32146;SDS011;32190;49.112;8.598;2022-12-18T05:19:29;12.98;;;8.40;;
32146;SDS011;32190;49.112;8.598;2022-12-18T05:25:19;9.93;;;7.15;;
32146;SDS011;32190;49.112;8.598;2022-12-18T05:31:10;11.48;;;8.55;;
32146;SDS011;32190;49.112;8.598;2022-12-18T05:37:01;10.80;;;8.25;;
32146;SDS011;32190;49.112;8.598;2022-12-18T05:42:52;11.93;;;7.78;;
32146;SDS011;32190;49.112;8.598;2022-12-18T05:48:43;12.02;;;7.75;;
32146;SDS011;32190;49.112;8.598;2022-12-18T05:54:34;10.32;;;6.95;;
32146;SDS011;32190;49.112;8.598;2022-12-18T06:00:25;12.23;;;8.57;;
32146;SDS011;32190;49.112;8.598;2022-12-18T06:06:19;12.38;;;7.82;;
32146;SDS011;32190;49.112;8.598;2022-12-18T06:12:12;11.73;;;7.60;;
32146;SDS011;32190;49.112;8.598;2022-12-18T06:18:03;8.10;;;6.57;;
32146;SDS011;32190;49.112;8.598;2022-12-18T06:23:53;11.07;;;7.53;;
32146;SDS011;32190;49.112;8.598;2022-12-18T06:36:12;11.05;;;6.60;;
32146;SDS011;32190;49.112;8.598;2022-12-18T06:42:03;11.32;;;7.78;;
32146;SDS011;32190;49.112;8.598;2022-12-18T06:47:54;9.00;;;7.07;;
32146;SDS011;32190;49.112;8.598;2022-12-18T06:53:45;11.80;;;8.00;;
32146;SDS011;32190;49.112;8.598;2022-12-18T06:59:35;9.88;;;6.82;;
32146;SDS011;32190;49.112;8.598;2022-12-18T07:05:26;12.63;;;7.88;;
32146;SDS011;32190;49.112;8.598;2022-12-18T07:11:17;9.57;;;6.63;;
32146;SDS011;32190;49.112;8.598;2022-12-18T07:17:08;9.60;;;6.45;;
32146;SDS011;32190;49.112;8.598;2022-12-18T07:22:59;10.45;;;6.88;;
32146;SDS011;32190;49.112;8.598;2022-12-18T07:28:54;8.35;;;6.65;;
32146;SDS011;32190;49.112;8.598;2022-12-18T07:34:46;9.02;;;5.85;;
32146;SDS011;32190;49.112;8.598;2022-12-18T07:40:36;9.52;;;6.43;;
32146;SDS011;32190;49.112;8.598;2022-12-18T07:46:27;11.02;;;6.07;;
32146;SDS011;32190;49.112;8.598;2022-12-18T07:52:18;9.10;;;6.32;;
32146;SDS011;32190;49.112;8.598;2022-12-18T07:58:08;8.20;;;5.97;;
32146;SDS011;32190;49.112;8.598;2022-12-18T08:03:59;10.60;;;6.25;;
32146;SDS011;32190;49.112;8.598;2022-12-18T08:09:50;12.25;;;7.63;;
32146;SDS011;32190;49.112;8.598;2022-12-18T08:15:40;13.75;;;8.93;;
32146;SDS011;32190;49.112;8.598;2022-12-18T08:21:31;12.48;;;7.57;;
32146;SDS011;32190;49.112;8.598;2022-12-18T08:27:22;10.10;;;6.97;;
32146;SDS011;32190;49.112;8.598;2022-12-18T08:40:12;11.43;;;7.60;;
32146;SDS011;32190;49.112;8.598;2022-12-18T08:46:18;10.95;;;6.70;;
32146;SDS011;32190;49.112;8.598;2022-12-18T08:52:10;14.10;;;8.05;;
32146;SDS011;32190;49.112;8.598;2022-12-18T08:58:04;11.35;;;8.65;;
32146;SDS011;32190;49.112;8.598;2022-12-18T09:03:54;15.45;;;8.48;;
32146;SDS011;32190;49.112;8.598;2022-12-18T09:09:45;19.75;;;13.95;;
32146;SDS011;32190;49.112;8.598;2022-12-18T09:15:40;16.00;;;11.23;;
32146;SDS011;32190;49.112;8.598;2022-12-18T09:21:35;16.25;;;10.07;;
32146;SDS011;32190;49.112;8.598;2022-12-18T09:27:27;16.05;;;11.43;;
32146;SDS011;32190;49.112;8.598;2022-12-18T09:33:18;16.35;;;10.05;;
32146;SDS011;32190;49.112;8.598;2022-12-18T09:39:08;16.85;;;10.57;;
32146;SDS011;32190;49.112;8.598;2022-12-18T09:44:59;15.25;;;11.15;;
32146;SDS011;32190;49.112;8.598;2022-12-18T09:57:18;15.95;;;9.05;;
32146;SDS011;32190;49.112;8.598;2022-12-18T10:03:13;22.35;;;11.40;;
32146;SDS011;32190;49.112;8.598;2022-12-18T10:21:17;15.73;;;10.07;;
32146;SDS011;32190;49.112;8.598;2022-12-18T10:27:17;11.65;;;8.85;;
32146;SDS011;32190;49.112;8.598;2022-12-18T10:39:31;14.65;;;10.15;;
32146;SDS011;32190;49.112;8.598;2022-12-18T10:45:21;19.17;;;10.93;;
32146;SDS011;32190;49.112;8.598;2022-12-18T10:51:22;16.27;;;10.75;;
32146;SDS011;32190;49.112;8.598;2022-12-18T11:04:30;20.55;;;12.15;;
32146;SDS011;32190;49.112;8.598;2022-12-18T11:10:50;22.98;;;12.45;;
32146;SDS011;32190;49.112;8.598;2022-12-18T11:16:44;15.73;;;10.93;;
32146;SDS011;32190;49.112;8.598;2022-12-18T11:22:37;18.40;;;11.05;;
32146;SDS011;32190;49.112;8.598;2022-12-18T11:28:36;17.10;;;10.70;;
32146;SDS011;32190;49.112;8.598;2022-12-18T11:34:31;17.88;;;11.20;;
32146;SDS011;32190;49.112;8.598;2022-12-18T11:40:26;15.13;;;10.13;;
32146;SDS011;32190;49.112;8.598;2022-12-18T11:46:24;14.93;;;10.15;;
32146;SDS011;32190;49.112;8.598;2022-12-18T11:52:23;17.58;;;10.98;;
32146;SDS011;32190;49.112;8.598;2022-12-18T12:10:59;16.77;;;9.82;;
32146;SDS011;32190;49.112;8.598;2022-12-18T12:17:23;16.33;;;9.48;;
32146;SDS011;32190;49.112;8.598;2022-12-18T12:35:46;14.18;;;9.38;;
32146;SDS011;32190;49.112;8.598;2022-12-18T12:41:41;13.80;;;9.35;;
32146;SDS011;32190;49.112;8.598;2022-12-18T12:48:13;14.65;;;9.93;;
32146;SDS011;32190;49.112;8.598;2022-12-18T13:00:39;15.57;;;9.10;;
32146;SDS011;32190;49.112;8.598;2022-12-18T13:06:48;15.60;;;9.48;;
32146;SDS011;32190;49.112;8.598;2022-12-18T13:12:54;15.65;;;10.75;;
32146;SDS011;32190;49.112;8.598;2022-12-18T13:18:50;15.63;;;9.90;;
32146;SDS011;32190;49.112;8.598;2022-12-18T13:24:52;12.48;;;9.02;;
32146;SDS011;32190;49.112;8.598;2022-12-18T13:30:53;17.70;;;10.52;;
32146;SDS011;32190;49.112;8.598;2022-12-18T13:36:46;15.07;;;9.93;;
32146;SDS011;32190;49.112;8.598;2022-12-18T13:42:38;15.68;;;10.52;;
32146;SDS011;32190;49.112;8.598;2022-12-18T13:54:51;15.23;;;9.88;;
32146;SDS011;32190;49.112;8.598;2022-12-18T14:00:44;16.13;;;8.52;;
32146;SDS011;32190;49.112;8.598;2022-12-18T14:06:35;17.33;;;10.60;;
32146;SDS011;32190;49.112;8.598;2022-12-18T14:12:27;12.65;;;8.45;;
32146;SDS011;32190;49.112;8.598;2022-12-18T14:18:45;14.82;;;10.43;;
32146;SDS011;32190;49.112;8.598;2022-12-18T14:24:38;14.05;;;9.07;;
32146;SDS011;32190;49.112;8.598;2022-12-18T14:30:30;13.38;;;8.63;;
32146;SDS011;32190;49.112;8.598;2022-12-18T14:36:26;14.02;;;8.73;;
32146;SDS011;32190;49.112;8.598;2022-12-18T14:42:18;12.80;;;8.27;;
32146;SDS011;32190;49.112;8.598;2022-12-18T14:54:05;12.80;;;7.90;;
32146;SDS011;32190;49.112;8.598;2022-12-18T15:06:35;10.63;;;6.60;;
32146;SDS011;32190;49.112;8.598;2022-12-18T15:12:43;10.50;;;7.13;;
32146;SDS011;32190;49.112;8.598;2022-12-18T15:18:38;13.35;;;7.93;;
32146;SDS011;32190;49.112;8.598;2022-12-18T15:24:39;12.10;;;7.95;;
32146;SDS011;32190;49.112;8.598;2022-12-18T15:30:29;15.68;;;9.80;;
32146;SDS011;32190;49.112;8.598;2022-12-18T15:36:22;13.95;;;8.15;;
32146;SDS011;32190;49.112;8.598;2022-12-18T15:42:13;13.27;;;8.18;;
32146;SDS011;32190;49.112;8.598;2022-12-18T15:48:23;13.75;;;8.18;;
32146;SDS011;32190;49.112;8.598;2022-12-18T15:54:13;13.82;;;8.88;;
32146;SDS011;32190;49.112;8.598;2022-12-18T16:00:06;16.25;;;9.38;;
32146;SDS011;32190;49.112;8.598;2022-12-18T16:06:01;15.63;;;8.45;;
32146;SDS011;32190;49.112;8.598;2022-12-18T16:11:52;16.45;;;8.93;;
32146;SDS011;32190;49.112;8.598;2022-12-18T16:17:43;15.85;;;9.90;;
32146;SDS011;32190;49.112;8.598;2022-12-18T16:23:34;14.95;;;8.82;;
32146;SDS011;32190;49.112;8.598;2022-12-18T16:29:25;19.63;;;10.00;;
32146;SDS011;32190;49.112;8.598;2022-12-18T16:35:19;15.35;;;9.10;;
32146;SDS011;32190;49.112;8.598;2022-12-18T16:41:17;14.23;;;8.77;;
32146;SDS011;32190;49.112;8.598;2022-12-18T16:47:21;13.65;;;8.32;;
32146;SDS011;32190;49.112;8.598;2022-12-18T16:53:11;15.13;;;8.32;;
32146;SDS011;32190;49.112;8.598;2022-12-18T16:59:02;14.25;;;8.52;;
32146;SDS011;32190;49.112;8.598;2022-12-18T17:04:54;15.82;;;9.07;;
32146;SDS011;32190;49.112;8.598;2022-12-18T17:10:47;15.57;;;9.00;;
32146;SDS011;32190;49.112;8.598;2022-12-18T17:22:42;12.82;;;7.88;;
32146;SDS011;32190;49.112;8.598;2022-12-18T17:28:33;12.20;;;7.22;;
32146;SDS011;32190;49.112;8.598;2022-12-18T17:34:24;11.98;;;7.85;;
32146;SDS011;32190;49.112;8.598;2022-12-18T17:40:14;10.82;;;6.93;;
32146;SDS011;32190;49.112;8.598;2022-12-18T17:46:05;12.60;;;7.45;;
32146;SDS011;32190;49.112;8.598;2022-12-18T17:51:56;10.55;;;6.75;;
32146;SDS011;32190;49.112;8.598;2022-12-18T17:57:46;11.13;;;6.70;;
32146;SDS011;32190;49.112;8.598;2022-12-18T18:03:37;15.50;;;7.75;;
32146;SDS011;32190;49.112;8.598;2022-12-18T18:09:27;11.70;;;7.53;;
32146;SDS011;32190;49.112;8.598;2022-12-18T18:15:18;11.93;;;5.95;;
32146;SDS011;32190;49.112;8.598;2022-12-18T18:21:09;11.10;;;7.20;;
32146;SDS011;32190;49.112;8.598;2022-12-18T18:27:00;13.45;;;8.43;;
32146;SDS011;32190;49.112;8.598;2022-12-18T18:32:50;15.15;;;8.88;;
32146;SDS011;32190;49.112;8.598;2022-12-18T18:38:41;22.33;;;13.00;;
32146;SDS011;32190;49.112;8.598;2022-12-18T18:44:32;16.05;;;9.20;;
32146;SDS011;32190;49.112;8.598;2022-12-18T18:50:23;16.63;;;9.63;;
32146;SDS011;32190;49.112;8.598;2022-12-18T18:56:15;20.35;;;12.73;;
32146;SDS011;32190;49.112;8.598;2022-12-18T19:02:10;18.45;;;12.00;;
32146;SDS011;32190;49.112;8.598;2022-12-18T19:08:04;19.17;;;13.13;;
32146;SDS011;32190;49.112;8.598;2022-12-18T19:13:58;13.27;;;9.25;;
32146;SDS011;32190;49.112;8.598;2022-12-18T19:19:49;17.80;;;10.18;;
32146;SDS011;32190;49.112;8.598;2022-12-18T19:25:41;11.05;;;7.82;;
32146;SDS011;32190;49.112;8.598;2022-12-18T19:31:31;16.95;;;10.13;;
32146;SDS011;32190;49.112;8.598;2022-12-18T19:37:22;15.15;;;10.05;;
32146;SDS011;32190;49.112;8.598;2022-12-18T19:43:13;14.32;;;8.65;;
32146;SDS011;32190;49.112;8.598;2022-12-18T19:49:04;23.55;;;14.20;;
32146;SDS011;32190;49.112;8.598;2022-12-18T19:54:55;24.85;;;14.85;;
32146;SDS011;32190;49.112;8.598;2022-12-18T20:00:45;16.98;;;10.32;;
32146;SDS011;32190;49.112;8.598;2022-12-18T20:06:52;13.80;;;9.40;;
32146;SDS011;32190;49.112;8.598;2022-12-18T20:12:45;18.92;;;12.00;;
32146;SDS011;32190;49.112;8.598;2022-12-18T20:48:40;17.20;;;11.50;;
32146;SDS011;32190;49.112;8.598;2022-12-18T20:54:31;15.80;;;10.77;;
32146;SDS011;32190;49.112;8.598;2022-12-18T21:00:22;15.13;;;9.20;;
32146;SDS011;32190;49.112;8.598;2022-12-18T21:06:13;19.25;;;13.23;;
32146;SDS011;32190;49.112;8.598;2022-12-18T21:12:10;16.58;;;10.07;;
32146;SDS011;32190;49.112;8.598;2022-12-18T21:18:20;23.70;;;13.27;;
32146;SDS011;32190;49.112;8.598;2022-12-18T21:24:10;13.90;;;9.82;;
32146;SDS011;32190;49.112;8.598;2022-12-18T21:30:02;20.52;;;11.68;;
32146;SDS011;32190;49.112;8.598;2022-12-18T21:35:52;13.85;;;9.82;;
32146;SDS011;32190;49.112;8.598;2022-12-18T21:41:43;17.63;;;10.30;;
32146;SDS011;32190;49.112;8.598;2022-12-18T21:47:53;16.92;;;10.85;;
32146;SDS011;32190;49.112;8.598;2022-12-18T21:53:43;13.35;;;9.18;;
32146;SDS011;32190;49.112;8.598;2022-12-18T22:29:36;18.50;;;10.20;;
32146;SDS011;32190;49.112;8.598;2022-12-18T22:35:45;14.38;;;8.63;;
32146;SDS011;32190;49.112;8.598;2022-12-18T22:41:35;16.83;;;10.25;;
32146;SDS011;32190;49.112;8.598;2022-12-18T22:47:26;14.43;;;8.85;;
32146;SDS011;32190;49.112;8.598;2022-12-18T22:53:17;12.80;;;8.18;;
32146;SDS011;32190;49.112;8.598;2022-12-18T22:59:07;23.38;;;13.18;;
32146;SDS011;32190;49.112;8.598;2022-12-18T23:05:10;23.08;;;12.98;;
32146;SDS011;32190;49.112;8.598;2022-12-18T23:11:01;15.15;;;9.90;;
32146;SDS011;32190;49.112;8.598;2022-12-18T23:16:52;17.77;;;10.88;;
32146;SDS011;32190;49.112;8.598;2022-12-18T23:22:42;13.43;;;8.88;;
32146;SDS011;32190;49.112;8.598;2022-12-18T23:28:33;13.23;;;8.98;;
32146;SDS011;32190;49.112;8.598;2022-12-18T23:34:24;13.15;;;8.55;;
32146;SDS011;32190;49.112;8.598;2022-12-18T23:40:15;15.60;;;9.63;;
32146;SDS011;32190;49.112;8.598;2022-12-18T23:46:24;13.93;;;9.18;;
32146;SDS011;32190;49.112;8.598;2022-12-18T23:52:19;12.48;;;8.82;;
32146;SDS011;32190;49.112;8.598;2022-12-18T23:58:15;11.40;;;6.60;;
